Aeroporto :
LOGIN :

Iscrizione | Disclaimer

   EN    FR    IT 

 










Sommario :    VFR   VFR Marginale   IFR   IFR Intensivo   IFR Molto Intensivo
Visibilità : 
Base nubi : 
>= 8 km
>= 3000ft
5 / 8 km
1000 / 3000 ft
1500m / 5 km
500 / 1000 ft
800 / 1500m
200 / 500 ft
< 800m
< 200 ft
Simboli :   Temporali  Nebbia  Neve Forte  Precipitazioni Forti  Vento > 20 kt
SIGMETs :   Varie  Temporali  Ghiacco  Turbolenza  Onda orograficha  Ceneri Vulcaniche






- Altitudine del aeroporto : 348 ft
- Codice IATA : LDV


LFRJ - Landivisiau

ULTIMO METAR :
  • 230130Z AUTO 23019KT 3100 -DZ BR OVC004 10/10 Q1026

METARs OBSOLETI :
  • 230100Z AUTO 22020G31KT 3400 -RA BR OVC004 10/10 Q1027
  • 230030Z AUTO 22020KT 3300 -DZ BR OVC004 11/10 Q1027
  • 230000Z AUTO 22019KT 3200 -DZ BR OVC004 11/10 Q1027
  • 222330Z AUTO 23018KT 3300 -DZ BR OVC003 11/10 Q1027
  • 222300Z AUTO 23017KT 3300 -DZ BR OVC003 11/11 Q1028

Previsioni scadute.



MetMap, La meteo Aeronautica in un colpo d'occhio ! - Copyright ORBIFLY Dicembre 2007 - Disclaimer

ORBIFLY MET'MAP TEAM :

Programmazione e sviluppo : Alexandra Zaïnal
Concezione : Baudouin d'Aumeries
Aiuto per la programmazione : Marc-Olivier Méhu
Supporto tecnico e logistico : Manuel Goepfert
Aiuto per la traduzione : Arnaldo La Scala

Contatto : metmap@orbifly.com




FONTI E CREDITI :

   NOAA